»·PEaware :: N434EP KLAX-KSAN

N434EP :: KLAX-KSAN

FLIGHT INFORMATION

Flight Status: Arrived
Operator: Privately registered:
United States
More flights under this callsign
Pilot: William R. (21243)
Aircraft: CESSNA 172 SKYHAWK
(C172)
More flights by this aircraft type
Origin: KLAX Los Angeles Intl
United States
Destination: KSAN San Diego Intl-Lindbergh
United States
More flights between these airports :: More routes between these airports
Route: +
File this flight plan on PilotEdge
Remarks:
Altitude:
(Current/Filed)
0ft
Speed:
(Current/Filed)
0kts
Departed: 14-Mar-19 09:53 PM
Arrived: 14-Mar-19 10:51 PM
Distance/Time
Traveled:
95nm/0:58
Distance/Time
To Go:
Arrived

Flight Plot

Page will automatically refresh every two minutes.


Map Options




Map Legend


Flown Route
Filed Route
Departure Airport
Arrival Airport
Navaid (VOR, NDB)
Fix

Horizontal Profiles

Position Reports

Time Latitude Longitude Heading Altitude Ground
Speed
14-Mar-19 21:45 33.935342 -118.382386 281 129ft 0kts
14-Mar-19 21:46 33.935342 -118.382386 281 129ft 0kts
14-Mar-19 21:47 33.935342 -118.382386 281 129ft 0kts
14-Mar-19 21:48 33.935342 -118.382386 281 129ft 0kts
14-Mar-19 21:49 33.935342 -118.382386 281 129ft 0kts
14-Mar-19 21:50 33.935539 -118.382499 342 129ft 7kts
14-Mar-19 21:51 33.936087 -118.382742 348 129ft 1kts
14-Mar-19 21:52 33.936218 -118.394361 262 363ft 75kts
14-Mar-19 21:53 33.931240 -118.419787 249 1175ft 80kts
14-Mar-19 21:54 33.916164 -118.441083 214 1906ft 76kts
14-Mar-19 21:55 33.902318 -118.458657 254 2741ft 64kts
14-Mar-19 21:56 33.883183 -118.467160 194 3181ft 98kts
14-Mar-19 21:57 33.852931 -118.473560 191 2973ft 114kts
14-Mar-19 21:58 33.824019 -118.479282 191 3223ft 97kts
14-Mar-19 21:59 33.797822 -118.484016 190 3710ft 97kts
14-Mar-19 22:00 33.773735 -118.468246 142 3977ft 109kts
14-Mar-19 22:01 33.748961 -118.444776 142 3978ft 116kts
14-Mar-19 22:02 33.724979 -118.418289 142 3983ft 118kts
14-Mar-19 22:03 33.701227 -118.391873 131 3983ft 118kts
14-Mar-19 22:04 33.679294 -118.362610 132 4006ft 117kts
14-Mar-19 22:05 33.657374 -118.333327 132 4005ft 118kts
14-Mar-19 22:06 33.635516 -118.304057 132 4005ft 117kts
14-Mar-19 22:07 33.612387 -118.276272 135 4006ft 117kts
14-Mar-19 22:08 33.588812 -118.249071 135 4007ft 117kts
14-Mar-19 22:09 33.565122 -118.222088 135 4010ft 117kts
14-Mar-19 22:10 33.541111 -118.195254 135 4011ft 118kts
14-Mar-19 22:11 33.516833 -118.168745 135 4011ft 117kts
14-Mar-19 22:12 33.491994 -118.142561 135 4024ft 119kts
14-Mar-19 22:13 33.466589 -118.116965 135 4021ft 118kts
14-Mar-19 22:14 33.441039 -118.092525 135 4015ft 116kts
14-Mar-19 22:15 33.415605 -118.068909 136 4017ft 116kts
14-Mar-19 22:16 33.390170 -118.044738 135 4022ft 117kts
14-Mar-19 22:17 33.364860 -118.019751 135 4025ft 118kts
14-Mar-19 22:18 33.339391 -117.994343 135 4024ft 119kts
14-Mar-19 22:19 33.314060 -117.968766 135 4025ft 119kts
14-Mar-19 22:20 33.288824 -117.943134 135 4027ft 119kts
14-Mar-19 22:21 33.263492 -117.917605 134 4023ft 119kts
14-Mar-19 22:22 33.238208 -117.892376 134 4019ft 117kts
14-Mar-19 22:23 33.213363 -117.867449 135 4018ft 116kts
14-Mar-19 22:24 33.188865 -117.842623 134 4015ft 115kts
14-Mar-19 22:25 33.164718 -117.817767 134 4014ft 114kts
14-Mar-19 22:26 33.140861 -117.792783 134 4014ft 114kts
14-Mar-19 22:27 33.117212 -117.767510 134 4014ft 114kts
14-Mar-19 22:28 33.093671 -117.742031 134 4014ft 114kts
14-Mar-19 22:29 33.070199 -117.716548 134 4014ft 114kts
14-Mar-19 22:30 33.046797 -117.691072 134 4014ft 114kts
14-Mar-19 22:31 33.023443 -117.665573 134 4014ft 114kts
14-Mar-19 22:32 33.000124 -117.640038 134 4014ft 114kts
14-Mar-19 22:33 32.977558 -117.613627 127 4015ft 113kts
14-Mar-19 22:34 32.961908 -117.581865 111 4091ft 107kts
14-Mar-19 22:35 32.952793 -117.547476 104 4182ft 109kts
14-Mar-19 22:36 32.942993 -117.512994 102 4275ft 110kts
14-Mar-19 22:37 32.929471 -117.480130 122 4345ft 113kts
14-Mar-19 22:38 32.912396 -117.448790 116 4415ft 113kts
14-Mar-19 22:39 32.896076 -117.416434 120 4477ft 114kts
14-Mar-19 22:40 32.878182 -117.385116 124 4529ft 115kts
14-Mar-19 22:41 32.855273 -117.356933 128 4471ft 119kts
14-Mar-19 22:42 32.834625 -117.326166 124 4432ft 118kts
14-Mar-19 22:43 32.814763 -117.294789 124 4400ft 118kts
14-Mar-19 22:44 32.793865 -117.264528 133 3728ft 119kts
14-Mar-19 22:45 32.770228 -117.238629 137 2756ft 114kts
14-Mar-19 22:46 32.747117 -117.211499 112 1042ft 111kts
14-Mar-19 22:47 32.742420 -117.183218 93 673ft 62kts
14-Mar-19 22:48 32.739456 -117.162852 134 783ft 67kts
14-Mar-19 22:49 32.729287 -117.173463 287 577ft 71kts
14-Mar-19 22:50 32.732857 -117.187524 243 21ft 7kts
14-Mar-19 22:51 32.732374 -117.189281 283 21ft 4kts

Navigation Log

Ident Type
Flight plan parsing failed, navigation log unavailable